createdAt,value
2022-11-06T00:04:16.967Z,7.42
2022-11-06T00:19:20.288Z,7.20
2022-11-06T00:34:23.464Z,7.11
2022-11-06T00:49:29.050Z,6.90
2022-11-06T01:04:32.395Z,6.56
2022-11-06T01:19:35.918Z,6.35
2022-11-06T01:34:39.442Z,6.12
2022-11-06T01:49:43.043Z,5.90
2022-11-06T02:04:49.166Z,5.64
2022-11-06T02:20:01.639Z,5.46
2022-11-06T02:35:30.379Z,5.28
2022-11-06T02:50:39.769Z,5.14
2022-11-06T03:06:04.934Z,4.98
2022-11-06T03:21:11.355Z,4.95
2022-11-06T03:36:23.286Z,5.14
2022-11-06T03:51:39.292Z,5.16
2022-11-06T04:07:11.292Z,5.03
2022-11-06T04:22:26.778Z,5.25
2022-11-06T04:37:57.622Z,5.39
2022-11-06T04:53:03.303Z,5.51
2022-11-06T05:08:07.326Z,5.59
2022-11-06T05:23:10.495Z,5.54
2022-11-06T05:38:13.877Z,5.47
2022-11-06T05:53:17.746Z,5.61
2022-11-06T06:08:21.083Z,5.60
2022-11-06T06:23:24.139Z,5.65
2022-11-06T06:38:27.299Z,5.79
2022-11-06T06:53:31.650Z,5.89
2022-11-06T07:08:35.070Z,5.85
2022-11-06T07:23:38.782Z,5.93
2022-11-06T07:38:44.078Z,6.11
2022-11-06T07:53:48.021Z,6.34
2022-11-06T08:08:56.135Z,6.59
2022-11-06T08:24:01.855Z,6.84
2022-11-06T08:39:05.202Z,7.18
2022-11-06T08:54:12.325Z,7.81
2022-11-06T09:09:16.048Z,8.39
2022-11-06T09:24:27.555Z,8.69
2022-11-06T09:39:42.881Z,9.59
2022-11-06T09:55:01.994Z,10.57
2022-11-06T10:10:12.025Z,11.71
2022-11-06T10:25:30.242Z,13.01
2022-11-06T10:40:33.667Z,14.16
2022-11-06T10:55:57.650Z,14.63
2022-11-06T11:11:07.038Z,14.88
2022-11-06T11:26:30.278Z,15.02
2022-11-06T11:41:33.649Z,15.41
2022-11-06T12:15:46.270Z,16.12
2022-11-06T12:31:01.580Z,16.68
2022-11-06T12:46:23.699Z,16.60
2022-11-06T13:01:59.556Z,17.66
2022-11-06T13:17:21.389Z,22.13
2022-11-06T13:32:26.469Z,23.83
2022-11-06T13:47:41.980Z,23.98
2022-11-06T14:03:04.052Z,23.89
2022-11-06T14:18:13.667Z,19.21
2022-11-06T14:33:40.685Z,16.72
2022-11-06T14:48:48.701Z,16.43
2022-11-06T15:03:55.482Z,15.24
2022-11-06T15:19:03.425Z,13.24
2022-11-06T15:34:23.432Z,12.18
2022-11-06T15:49:26.951Z,11.52
2022-11-06T16:04:32.657Z,11.06
2022-11-06T16:19:39.887Z,10.71
2022-11-06T16:34:46.108Z,10.40
2022-11-06T16:49:54.813Z,10.00
2022-11-06T17:05:17.175Z,9.82
2022-11-06T17:20:20.627Z,9.58
2022-11-06T17:35:23.934Z,9.53
2022-11-06T17:50:28.048Z,9.31
2022-11-06T18:05:31.786Z,8.91
2022-11-06T18:20:35.210Z,8.79
2022-11-06T18:35:38.367Z,8.65
2022-11-06T18:50:41.622Z,8.55
2022-11-06T19:05:47.774Z,8.55
2022-11-06T19:20:51.136Z,8.48
2022-11-06T19:35:54.904Z,8.35
2022-11-06T19:51:00.028Z,8.33
2022-11-06T20:06:07.800Z,8.20
2022-11-06T20:21:12.706Z,8.01
2022-11-06T20:36:25.562Z,7.88
2022-11-06T20:51:31.866Z,7.72
2022-11-06T21:06:39.160Z,7.61
2022-11-06T21:21:42.365Z,7.38
2022-11-06T21:36:46.554Z,7.25
2022-11-06T21:51:50.714Z,7.11
2022-11-06T22:06:54.226Z,6.91
2022-11-06T22:21:57.526Z,6.74
2022-11-06T22:37:00.900Z,6.51
2022-11-06T22:52:04.168Z,6.47
2022-11-06T23:07:07.302Z,6.49
2022-11-06T23:22:29.585Z,6.54
2022-11-06T23:37:33.187Z,6.55
2022-11-06T23:52:36.293Z,6.62
